Ostatnio dodane

Tytuł Autor Odpowiedzi Last Postikona sortowania Odsłon łącznie Odsłon dzisiaj
Sterownik świateł do samochodu - jak podać sygnały na mikrokontroler? mareks6 22 2014-10-28 17:09 4 338 2 646
Atmega fusebit doctor Łukasz 4 2014-10-07 10:09 10 374 3 946
USBasp problem z programowaniem Eagle 8 2014-10-05 05:49 5 194 2 096
Bascom - Sterowanie wyjściami z impulsatora? Mirix 7 2014-10-01 15:49 4 898 2 934
RFM12B - łatwiejsze niż myślisz EDC 2014-09-15 00:56 6 160 3 676
Przerywacz kierunkowskazów APE 13A - nie działa poprawnie po naprawie Motorpal 2 2014-09-11 13:26 2 666 1 880
Cyfrowy Przedwzmacniacz mirley 102 2014-08-28 21:21 43 099 12 179
Sterownik C.O. z monitoringiem EDC 3 2014-08-27 16:35 3 486 2 204
AVR Odtwarzacz wav demsy1 2 2014-08-16 12:42 2 546 1 747
problem ze wzmacniaczem na Tda 1905 Misiek 6 2014-08-09 20:52 12 380 2 893
Timer+pomiar temperatury marekszy 14 2014-07-19 20:50 2 864 1 928
Przetwornik ADC maro 7 2014-07-16 10:11 3 035 1 958
Mirley.net Uruchomiona mirley 2014-07-16 08:05 3 452 2 186
Przerwanie operacji WAIT bascom barni 1 2014-07-10 14:08 2 982 2 029
Nowy soft przez USB/RS232 czyli BOOTLOADER EDC 13 2014-07-03 08:34 5 820 3 916
Zapis i odczyt do eeprom demsy1 6 2014-06-27 11:35 3 140 2 112
Regulator PWM DC 15A Chester 15 2014-06-25 18:00 5 532 3 298
AVT1460 Chester 2 2014-06-25 17:57 2 470 1 677
Bascom-PWM nanab 88 2014-06-24 05:21 39 098 9 643
Przerwania INT0 i INT1 jacek1987-1987 21 2014-06-22 22:04 4 872 3 079
Zwiększenie zasięgu działania czujnika na fototranzystorze i diodzie IR jacek1987-1987 17 2014-06-17 22:46 4 933 3 322
Big Endian w atmega32 wchpikus 2 2014-06-14 11:57 3 640 2 272
Modyfikacja kierownicy PC MSideWinder FFB (pomysły) Radzioo 5 2014-06-13 18:15 5 878 3 645
termometr_uniwersalny wersja na 2051 kaktus 4 2014-06-07 16:29 4 428 1 777
libs description w Eagle kaktus 1 2014-06-07 16:12 3 593 2 303